LCRA/AKT METAR and TAF weather

Enter ICAO airport designator
Station Type Date Time Source
LCRA METAR 2019/04/24 15:50 UTC NOAA

LCRA 241550Z 20005KT CAVOK 19/13 Q1024 NOSIG


Station Type Date Time Source
LCRA Decoded METAR 2019/04/24 15:50 UTC NOAA

Akrotiri, Cyprus (LCRA) 34-35N 032-59E 0M
Apr 24, 2019 - 11:50 AM EDT / 2019.04.24 1550 UTC
Wind: from the SSW (200 degrees) at 6 MPH (5 KT):0
Visibility: greater than 7 mile(s):0
Temperature: 66 F (19 C)
Dew Point: 55 F (13 C)
Relative Humidity: 68%
Pressure (altimeter): 30.24 in. Hg (1024 hPa)
ob: LCRA 241550Z 20005KT CAVOK 19/13 Q1024 NOSIG
cycle: 16

Station Type Date Time Source
LCRA TAF 2019/04/24 15:44 UTC NOAA

TAF LCRA 241336Z 2415/2509 27008KT 9999 FEW050
BECMG 2418/2421 VRB03KT

Example: see airport list